Latest Weather Observations for Gympie

IDQ60901

Issued at 7:11 am EST Wednesday 22 February 2017 (issued every 10 minutes, with the page automatically refreshed every 10 minutes)

About weather observations | Map of Brisbane area stations | Latest observations for Brisbane area | Other Formats
Station Details ID: 040093 Name: GYMPIE Lat: -26.18 Lon: 152.64 Height: 64.5 m
Data from the previous 72 hours. | See also: Recent months at Gympie
Date/Time
EST
Temp
°C
App
Temp
°C
Dew
Point
°C
Rel
Hum
%
Delta-T
°C
Wind Press
QNH
hPa
Press
MSL
hPa
Rain since
9am
mm
Dir  Spd
km/h
Gust
km/h
Spd
kts
Gust
kts
22/07:00am 23.0 28.3 23.0 100 0.0 CALM 0 4 0 2 1018.4 1018.1 0.0
22/06:30am 21.7 25.9 21.7 100 0.0 SSE 2 4 1 2 1018.2 1017.9 0.0
22/06:00am 21.1 24.2 21.1 100 0.0 SE 6 7 3 4 1017.6 1017.3 0.0
22/05:30am 20.9 24.3 20.9 100 0.0 SE 4 6 2 3 1017.4 1017.1 0.0
22/05:00am 21.0 24.4 21.0 100 0.0 SE 4 6 2 3 1017.2 1016.9 0.0
22/04:30am 20.9 24.3 20.9 100 0.0 SE 4 6 2 3 1017.1 1016.8 0.0
22/04:00am 21.6 25.0 21.6 100 0.0 SE 6 7 3 4 1016.8 1016.5 0.0
22/03:30am 21.1 24.2 21.1 100 0.0 SSE 6 6 3 3 1016.8 1016.5 0.0
22/03:00am 21.5 25.2 21.5 100 0.0 SE 4 6 2 3 1016.6 1016.3 0.0
22/02:30am 21.2 24.8 21.2 100 0.0 SSE 4 6 2 3 1016.8 1016.5 0.0
22/02:00am 21.6 25.4 21.6 100 0.0 SE 4 6 2 3 1016.9 1016.6 0.0
22/01:30am 21.6 25.7 21.6 100 0.0 SSE 2 4 1 2 1017.2 1016.9 0.0
22/01:00am 21.7 25.9 21.7 100 0.0 SE 2 4 1 2 1017.2 1016.9 0.0
22/12:30am 22.5 26.3 21.7 95 0.5 SE 4 6 2 3 1017.3 1017.0 0.0
22/12:00am 22.8 26.5 21.4 92 0.9 SSE 4 6 2 3 1017.4 1017.1 0.0
 
Date/Time
EST
Temp
°C
App
Temp
°C
Dew
Point
°C
Rel
Hum
%
Delta-T
°C
Wind Press
QNH
hPa
Press
MSL
hPa
Rain since
9am
mm
Dir  Spd
km/h
Gust
km/h
Spd
kts
Gust
kts
21/11:30pm 23.4 26.7 21.5 89 1.3 SSE 6 7 3 4 1017.4 1017.1 0.0
21/11:00pm 23.4 26.6 21.3 88 1.4 SSE 6 7 3 4 1017.4 1017.1 0.0
21/10:30pm 23.8 27.0 21.3 86 1.6 SSE 6 9 3 5 1017.6 1017.3 0.0
21/10:00pm 24.3 27.5 21.6 85 1.8 SSE 7 13 4 7 1017.7 1017.4 0.0
21/09:30pm 24.5 27.9 22.0 86 1.7 SSE 7 15 4 8 1017.8 1017.5 0.0
21/09:00pm 24.9 28.1 23.0 89 1.3 SE 11 20 6 11 1017.9 1017.6 0.0
21/08:30pm 24.9 29.0 23.9 94 0.7 SE 9 22 5 12 1017.4 1017.1 0.0
21/08:00pm 24.8 29.0 23.4 92 1.0 SSE 7 9 4 5 1017.4 1017.1 0.0
21/07:30pm 25.4 28.7 22.5 84 2.0 SE 9 17 5 9 1016.9 1016.6 0.0
21/07:00pm 26.0 27.9 22.1 79 2.6 SE 15 26 8 14 1016.8 1016.5 0.0
21/06:30pm 26.4 28.6 21.2 73 3.5 SE 11 22 6 12 1016.5 1016.2 0.0
21/06:00pm 27.0 28.2 19.9 65 4.6 SE 13 24 7 13 1016.2 1015.9 0.0
21/05:30pm 27.7 27.2 18.7 58 5.8 SE 19 30 10 16 1015.7 1015.4 0.0
21/05:00pm 29.0 28.4 17.5 49 7.3 SE 17 28 9 15 1015.2 1014.9 0.0
21/04:30pm 30.5 30.5 17.2 44 8.4 SE 13 24 7 13 1014.7 1014.4 0.0
21/04:00pm 30.8 30.8 17.1 43 8.7 SE 13 24 7 13 1014.4 1014.1 0.0
21/03:30pm 31.4 31.1 17.3 43 9.0 ESE 15 26 8 14 1014.4 1014.1 0.0
21/03:00pm 31.5 31.0 17.0 41 9.2 SE 15 30 8 16 1014.1 1013.7 0.0
21/02:30pm 32.2 32.3 18.4 44 9.0 ESE 15 32 8 17 1014.3 1013.9 0.0
21/02:00pm 32.4 32.9 19.3 46 8.6 E 15 26 8 14 1014.3 1013.9 0.0
21/01:30pm 31.2 32.5 19.2 48 7.8 E 11 24 6 13 1014.6 1014.3 0.0
21/01:00pm 31.8 32.9 20.4 51 7.6 E 15 30 8 16 1014.6 1014.3 0.0
21/12:30pm 32.6 35.0 20.8 49 7.9 ESE 9 15 5 8 1014.9 1014.6 0.0
21/12:00pm 31.0 32.5 19.0 48 7.8 SE 9 20 5 11 1015.3 1015.0 0.0
21/11:30am 32.4 34.2 20.3 48 8.1 ESE 11 20 6 11 1015.6 1015.3 0.0
21/11:00am 31.8 34.4 20.4 51 7.6 SE 7 17 4 9 1015.9 1015.6 0.0
21/10:30am 31.2 33.1 20.5 53 7.1 SE 11 24 6 13 1016.3 1016.0 0.0
21/10:00am 31.1 34.7 23.0 62 5.6 SSE 9 22 5 12 1016.4 1016.1 0.0
21/09:30am 29.8 34.2 24.4 73 3.8 SE 9 17 5 9 1016.7 1016.4 0.0
21/09:00am 28.7 33.6 25.3 82 2.4 SSE 9 19 5 10 1016.8 1016.5 0.0
21/08:30am 27.0 31.7 25.6 92 1.0 SSE 11 19 6 10 1016.8 1016.5 0.0
21/08:00am 27.2 33.8 27.2 100 0.0 SSE 7 15 4 8 1016.6 1016.3 0.0
21/07:30am 25.1 31.6 25.1 100 0.0 CALM 0 0 0 0 1016.5 1016.2 0.0
21/07:00am 22.8 28.0 22.8 100 0.0 CALM 0 0 0 0 1016.2 1015.9 0.0
21/06:30am 21.5 26.0 21.5 100 0.0 CALM 0 0 0 0 1015.7 1015.4 0.0
21/06:00am 20.7 24.8 20.7 100 0.0 CALM 0 0 0 0 1015.3 1015.0 0.0
21/05:30am 20.8 24.9 20.8 100 0.0 CALM 0 0 0 0 1014.9 1014.6 0.0
21/05:00am 20.9 25.1 20.9 100 0.0 CALM 0 0 0 0 1014.5 1014.2 0.0
21/04:30am 21.1 25.4 21.1 100 0.0 CALM 0 0 0 0 1014.0 1013.6 0.0
21/04:00am 21.3 25.7 21.3 100 0.0 CALM 0 0 0 0 1013.8 1013.4 0.0
21/03:30am 21.2 25.5 21.2 100 0.0 CALM 0 0 0 0 1013.5 1013.1 0.0
21/03:00am 21.3 25.7 21.3 100 0.0 CALM 0 0 0 0 1013.4 1013.0 0.0
21/02:30am 21.4 25.8 21.4 100 0.0 CALM 0 0 0 0 1013.2 1012.8 0.0
21/02:00am 21.7 25.9 21.7 100 0.0 SSE 2 2 1 1 1013.5 1013.1 0.0
21/01:30am 22.1 26.5 22.1 100 0.0 SE 2 2 1 1 1013.6 1013.2 0.0
21/01:00am 21.9 25.8 21.9 100 0.0 SE 4 6 2 3 1013.9 1013.5 0.0
21/12:30am 22.9 27.4 22.9 100 0.0 ESE 4 4 2 2 1014.1 1013.7 0.0
21/12:00am 23.4 28.5 23.4 100 0.0 SE 2 4 1 2 1014.3 1013.9 0.0
 
Date/Time
EST
Temp
°C
App
Temp
°C
Dew
Point
°C
Rel
Hum
%
Delta-T
°C
Wind Press
QNH
hPa
Press
MSL
hPa
Rain since
9am
mm
Dir  Spd
km/h
Gust
km/h
Spd
kts
Gust
kts
20/11:30pm 23.8 29.5 23.8 100 0.0 CALM 0 2 0 1 1014.4 1014.1 0.0
20/11:00pm 24.3 29.6 24.3 100 0.0 SSE 4 9 2 5 1014.3 1013.9 0.0
20/10:30pm 24.1 29.2 24.1 100 0.0 S 4 7 2 4 1014.5 1014.2 0.0
20/10:00pm 24.2 29.4 24.2 100 0.0 SSE 4 6 2 3 1014.4 1014.1 0.0
20/09:30pm 24.3 29.8 24.0 98 0.2 SSE 2 4 1 2 1014.2 1013.8 0.0
20/09:00pm 24.6 30.5 24.1 97 0.3 CALM 0 0 0 0 1013.9 1013.5 0.0
20/08:30pm 25.1 30.5 23.9 93 0.8 SE 2 4 1 2 1013.6 1013.2 0.0
20/08:00pm 25.6 30.0 23.5 88 1.4 E 6 11 3 6 1013.0 1012.6 0.0
20/07:30pm 26.0 30.1 22.9 83 2.1 E 6 11 3 6 1012.4 1012.0 0.0
20/07:00pm 26.3 28.7 21.5 75 3.2 E 11 20 6 11 1011.7 1011.3 0.0
20/06:30pm 26.9 28.7 20.3 67 4.3 E 11 17 6 9 1011.1 1010.7 0.0
20/06:00pm 28.0 30.0 20.0 61 5.2 E 9 19 5 10 1010.5 1010.1 0.0
20/05:30pm 28.9 30.1 19.8 58 6.0 E 13 20 7 11 1009.7 1009.3 0.0
20/05:00pm 30.2 31.5 20.2 55 6.6 E 13 24 7 13 1009.0 1008.6 0.0
20/04:30pm 31.6 32.9 20.2 50 7.6 E 13 22 7 12 1008.6 1008.2 0.0
20/04:00pm 32.6 34.3 20.2 48 8.3 ESE 11 20 6 11 1008.4 1008.0 0.0
20/03:30pm 33.8 35.8 18.7 40 9.9 E 6 11 3 6 1008.3 1007.9 0.0
20/03:00pm 33.2 34.8 17.0 38 10.4 SSW 4 9 2 5 1008.3 1007.9 0.0
20/02:30pm 33.7 35.5 18.2 39 10.1 SSE 6 9 3 5 1008.6 1008.2 0.0
20/02:00pm 33.6 35.3 18.5 40 9.9 SE 7 13 4 7 1009.0 1008.6 0.0
20/01:30pm 33.2 35.6 18.9 42 9.4 ENE 4 9 2 5 1009.2 1008.8 0.0
20/01:00pm 31.4 33.8 18.7 46 8.3 ESE 4 15 2 8 1009.5 1009.1 0.0
20/12:30pm 31.4 33.4 19.1 48 8.0 SE 7 13 4 7 1009.9 1009.5 0.0
20/12:00pm 30.0 31.5 18.8 51 7.3 ESE 9 19 5 10 1010.4 1010.0 0.0
20/11:30am 29.1 30.7 17.9 50 7.1 S 6 9 3 5 1010.9 1010.5 0.0
20/11:00am 28.9 30.9 19.2 55 6.3 SSE 7 13 4 7 1011.3 1010.9 0.0
20/10:30am 28.3 30.8 20.3 62 5.3 SSE 7 13 4 7 1011.7 1011.3 0.0
20/10:00am 27.3 30.0 21.3 69 4.0 SSW 9 17 5 9 1011.9 1011.5 0.0
20/09:30am 26.8 31.3 23.9 84 2.0 S 7 17 4 9 1011.9 1011.5 0.0
20/09:00am 25.6 31.7 25.6 100 0.0 S 4 7 2 4 1011.9 1011.5 15.0
20/08:30am 23.9 29.7 23.9 100 0.0 CALM 0 0 0 0 1011.9 1011.5 15.0
20/08:00am 23.3 28.4 23.3 100 0.0 WNW 2 4 1 2 1011.6 1011.2 15.0
20/07:30am 23.0 27.9 23.0 100 0.0 SW 2 4 1 2 1011.4 1011.0 15.0
20/07:00am 22.8 28.0 22.8 100 0.0 CALM 0 0 0 0 1011.1 1010.7 15.0
20/06:30am 22.5 27.5 22.5 100 0.0 CALM 0 0 0 0 1010.7 1010.3 15.0
20/06:00am 22.3 27.2 22.3 100 0.0 CALM 0 2 0 1 1009.9 1009.5 15.0
20/05:30am 22.3 26.8 22.3 100 0.0 SW 2 7 1 4 1009.5 1009.1 15.0
20/05:00am 22.3 26.8 22.3 100 0.0 NNE 2 4 1 2 1008.2 1007.8 15.0
20/04:30am 22.3 26.8 22.3 100 0.0 N 2 4 1 2 1008.1 1007.7 15.0
20/04:00am 22.5 27.5 22.5 100 0.0 CALM 0 0 0 0 1007.8 1007.4 15.0
20/03:30am 22.9 28.1 22.9 100 0.0 CALM 0 0 0 0 1008.0 1007.6 15.0
20/03:00am 23.0 28.3 23.0 100 0.0 CALM 0 0 0 0 1008.1 1007.7 15.0
20/02:30am 23.0 28.3 23.0 100 0.0 CALM 0 0 0 0 1008.4 1008.0 15.0
20/02:00am 23.0 28.3 23.0 100 0.0 CALM 0 2 0 1 1008.7 1008.3 15.0
20/01:30am 22.9 27.4 22.9 100 0.0 WSW 4 6 2 3 1009.4 1009.0 15.0
20/01:00am 22.9 27.7 22.9 100 0.0 WSW 2 7 1 4 1009.3 1008.9 15.0
20/12:30am 23.4 28.9 23.4 100 0.0 CALM 0 0 0 0 1009.6 1009.2 2.2
20/12:00am 23.5 28.7 23.5 100 0.0 NW 2 4 1 2 1009.7 1009.3 2.2
 
Date/Time
EST
Temp
°C
App
Temp
°C
Dew
Point
°C
Rel
Hum
%
Delta-T
°C
Wind Press
QNH
hPa
Press
MSL
hPa
Rain since
9am
mm
Dir  Spd
km/h
Gust
km/h
Spd
kts
Gust
kts
19/11:30pm 23.4 28.1 23.4 100 0.0 N 4 6 2 3 1009.6 1009.2 2.2
19/11:00pm 23.6 29.2 23.6 100 0.0 CALM 0 2 0 1 1009.6 1009.2 2.2
19/10:30pm 23.5 29.1 23.5 100 0.0 CALM 0 4 0 2 1009.6 1009.2 2.2
19/10:00pm 23.4 28.9 23.4 100 0.0 CALM 0 2 0 1 1009.4 1009.0 2.2
19/09:30pm 23.4 28.5 23.4 100 0.0 SSW 2 6 1 3 1009.8 1009.4 2.2
19/09:00pm 23.5 29.1 23.5 100 0.0 CALM 0 0 0 0 1009.7 1009.3 2.2
19/08:30pm 23.4 28.9 23.4 100 0.0 CALM 0 0 0 0 1009.4 1009.0 2.2
19/08:00pm 23.4 28.9 23.4 100 0.0 CALM 0 0 0 0 1008.8 1008.4 2.2
19/07:30pm 23.4 28.9 23.4 100 0.0 CALM 0 0 0 0 1008.7 1008.3 2.0
19/07:00pm 23.3 28.0 23.3 100 0.0 SSW 4 6 2 3 1008.0 1007.6 1.8
19/06:30pm 23.8 28.8 23.8 100 0.0 E 4 6 2 3 1007.7 1007.3 1.2
19/06:00pm 25.1 30.0 23.7 92 1.0 N 4 9 2 5 1007.4 1007.0 0.2
19/05:30pm 25.8 29.3 22.1 80 2.5 N 7 13 4 7 1006.0 1005.7 0.0
19/05:00pm 26.9 29.5 20.5 68 4.2 NE 7 15 4 8 1005.6 1005.3 0.0
19/04:30pm 29.0 31.8 21.5 64 5.0 NNE 9 19 5 10 1005.0 1004.7 0.0
19/04:00pm 32.1 34.8 21.3 53 7.3 NNW 9 15 5 8 1004.6 1004.3 0.0
19/03:30pm 32.6 36.1 21.8 53 7.3 NNE 6 11 3 6 1004.8 1004.5 0.0
19/03:00pm 33.5 36.2 21.3 48 8.3 NNW 9 15 5 8 1005.2 1004.9 0.0
19/02:30pm 33.3 35.7 20.8 48 8.4 NW 9 15 5 8 1005.5 1005.2 0.0
19/02:00pm 33.3 35.5 21.1 48 8.3 NNW 11 22 6 12 1005.9 1005.6 0.0
19/01:30pm 34.0 36.5 21.1 47 8.7 N 9 20 5 11 1006.1 1005.8 0.0
19/01:00pm 34.0 36.7 20.7 45 9.0 N 7 13 4 7 1006.5 1006.2 0.0
19/12:30pm 33.3 35.5 19.7 44 9.0 N 7 13 4 7 1006.8 1006.5 0.0
19/12:00pm 33.6 35.6 20.7 46 8.7 N 11 17 6 9 1007.2 1006.8 0.0
19/11:30am 32.3 34.6 19.9 48 8.2 NNW 7 15 4 8 1007.8 1007.4 0.0
19/11:00am 32.1 34.7 20.4 50 7.8 NNW 7 20 4 11 1007.9 1007.5 0.0
19/10:30am 31.0 34.0 20.9 55 6.8 NNW 6 15 3 8 1008.3 1007.9 0.0
19/10:00am 30.1 32.4 20.6 56 6.3 N 9 19 5 10 1008.4 1008.0 0.0
19/09:30am 29.6 32.8 21.3 61 5.6 N 6 15 3 8 1008.7 1008.3 0.0
19/09:00am 28.4 31.5 22.2 69 4.2 N 9 17 5 9 1008.9 1008.5 0.0
19/08:30am 27.8 30.7 21.8 70 4.0 NE 9 15 5 8 1009.1 1008.7 0.0
19/08:00am 27.2 32.2 23.2 79 2.7 NNE 2 6 1 3 1009.4 1009.0 0.0
19/07:30am 25.6 30.4 22.9 85 1.8 N 2 4 1 2 1009.6 1009.2 0.0

Latest Capital City Observations: Canberra | Sydney | Melbourne | Brisbane | Adelaide | Perth | Hobart | Darwin

Other Formats:

Comma delimited format used in spreadsheet applications
http://www.bom.gov.au/fwo/IDQ60901/IDQ60901.94566.axf

JavaScript Object Notation format (JSON) in row-major order
http://www.bom.gov.au/fwo/IDQ60901/IDQ60901.94566.json